Mountain View, Arkansas
Current Conditions -  °F | °C
As of 12:15 PM on Saturday 25 Oct 2014 (Local Time) from KBVX Reporting Station
Clear Clear  
Wind Chill: 81°   Ceiling: Unl
Heat Index: 82°   Visibility: 10mi
Dew Point: 64°   Wind: 7mph
Humidity: 58%   Direction: 280°W
Pressure: 30.06"   Gusts: NA
Location:  35.87°N, 92.12°W
Report Text: KBVX 251715Z AUTO 28006KT 10SM CLR 27/18 A3006 RMK AO1
Loading
Personal Weather Stations






























Interactive Weather Map
Tropical Storm Tracking
New forecast layout! Learn more

10-Day Weather Forecast

Advertisements
Track Severe Weather on mobile